Yengema Airport

Jump to: basic info | weather | comments

Related pages: nearby airports | nearby navaids | notams | map

Basic information (top)

Codes: WYE GFYE
Location: lon 8.610470, lat -11.045400, elev 1,300 ft / 396 m msl
Status: medium_airport
Scheduled airline service: yes
Links: Wikipedia Mobile

Weather (top)

Current conditions for Lungi International Airport 128nm (236km) W (rec'd 2015/04/27 18:00Z):

GFLL 271800Z 29006KT 9999 SCT014 FEW028CB 29/23 Q1009 RMK CB-NE

Airport forecast for Lungi International Airport 128nm (236km) W (rec'd 2015/04/27 18:00Z):

TAF GFLL 271600Z 2718/2824 24006KT 8000 TSRA BKN008 FEW026CB 
      TEMPO 2801/2807 21005KT 6000 TSRA BKN013 FEW025CB 
      TEMPO 2808/2813 27010KT TS 9999 SCT014 FEW027CB

Latest comments (top)

No comments yet for Yengema Airport

More... (top)

See also NOTAMs and nearby airports and navaids, or visit the Yengema Airport page at the main OurAirports website..